createdAt,value
2022-07-29T00:00:42.049Z,1.00
2022-07-29T00:01:46.372Z,1.50
2022-07-29T00:02:50.951Z,2.50
2022-07-29T00:03:55.322Z,1.50
2022-07-29T00:04:59.813Z,2.00
2022-07-29T00:06:04.121Z,2.00
2022-07-29T00:07:08.322Z,2.50
2022-07-29T00:08:12.674Z,2.00
2022-07-29T00:09:16.733Z,0.50
2022-07-29T00:10:20.629Z,0.50
2022-07-29T00:11:24.523Z,0.75
2022-07-29T00:12:28.433Z,0.50
2022-07-29T00:13:33.508Z,1.50
2022-07-29T00:14:37.349Z,0.50
2022-07-29T00:15:41.350Z,0.75
2022-07-29T00:16:45.423Z,0.00
2022-07-29T00:17:49.354Z,1.00
2022-07-29T00:18:53.315Z,1.25
2022-07-29T00:19:57.150Z,2.00
2022-07-29T00:21:01.163Z,1.50
2022-07-29T00:22:05.254Z,2.25
2022-07-29T00:23:09.252Z,2.50
2022-07-29T00:24:14.447Z,1.50
2022-07-29T00:25:18.682Z,1.00
2022-07-29T00:26:22.589Z,2.00
2022-07-29T00:27:26.807Z,2.25
2022-07-29T00:28:31.013Z,2.00
2022-07-29T00:29:35.569Z,1.50
2022-07-29T00:30:39.843Z,0.75
2022-07-29T00:31:43.764Z,2.00
2022-07-29T00:32:47.824Z,3.00
2022-07-29T00:33:51.730Z,2.00
2022-07-29T00:34:55.594Z,2.00
2022-07-29T00:35:59.524Z,1.00
2022-07-29T00:37:03.738Z,2.00
2022-07-29T00:38:07.737Z,5.00
2022-07-29T00:39:11.952Z,5.25
2022-07-29T00:40:16.034Z,1.50
2022-07-29T00:41:20.005Z,2.50
2022-07-29T00:42:24.141Z,2.00
2022-07-29T00:43:28.058Z,1.75
2022-07-29T00:44:31.950Z,1.50
2022-07-29T00:45:35.866Z,0.50
2022-07-29T00:46:39.785Z,0.25
2022-07-29T00:47:43.691Z,1.00
2022-07-29T00:48:47.804Z,1.00
2022-07-29T00:49:51.591Z,0.75
2022-07-29T00:50:55.633Z,1.00
2022-07-29T00:51:59.570Z,0.50
2022-07-29T00:53:03.667Z,0.50
2022-07-29T00:54:07.638Z,0.50
2022-07-29T00:55:11.809Z,1.75
2022-07-29T00:56:15.948Z,2.50
2022-07-29T00:57:20.052Z,2.00
2022-07-29T00:58:24.270Z,2.75
2022-07-29T00:59:34.618Z,2.50
2022-07-29T01:00:33.750Z,1.50
2022-07-29T01:01:37.840Z,1.75
2022-07-29T01:02:41.898Z,2.00
2022-07-29T01:03:45.896Z,1.50
2022-07-29T01:04:50.106Z,3.50
2022-07-29T01:05:53.914Z,2.25
2022-07-29T01:06:57.900Z,1.50
2022-07-29T01:08:02.823Z,2.50
2022-07-29T01:09:06.926Z,2.00
2022-07-29T01:10:11.009Z,0.25
2022-07-29T01:11:14.931Z,0.50
2022-07-29T01:12:18.937Z,1.00
2022-07-29T01:13:22.851Z,1.50
2022-07-29T01:14:26.840Z,1.00
2022-07-29T01:15:30.941Z,1.00
2022-07-29T01:16:35.182Z,1.25
2022-07-29T01:17:39.181Z,1.00
2022-07-29T01:18:43.250Z,1.00
2022-07-29T01:19:47.229Z,2.50
2022-07-29T01:20:51.249Z,3.00
2022-07-29T01:21:55.247Z,1.50
2022-07-29T01:22:59.271Z,1.25
2022-07-29T01:24:03.265Z,0.75
2022-07-29T01:25:07.576Z,1.00
2022-07-29T01:26:11.689Z,1.00
2022-07-29T01:27:15.779Z,1.50
2022-07-29T01:28:21.000Z,1.75
2022-07-29T01:29:26.192Z,0.50
2022-07-29T01:30:31.446Z,1.00
2022-07-29T01:31:36.637Z,1.00
2022-07-29T01:32:40.481Z,1.25
2022-07-29T01:33:44.340Z,3.00
2022-07-29T01:34:48.541Z,3.00
2022-07-29T01:35:52.488Z,2.50
2022-07-29T01:36:56.485Z,1.00
2022-07-29T01:38:00.389Z,1.50
2022-07-29T01:39:04.242Z,2.50
2022-07-29T01:40:08.246Z,1.25
2022-07-29T01:41:12.281Z,1.50
2022-07-29T01:42:16.185Z,1.00
2022-07-29T01:43:20.080Z,1.00
2022-07-29T01:44:24.082Z,2.00
2022-07-29T01:45:28.000Z,1.50
2022-07-29T01:46:31.825Z,1.00
2022-07-29T01:47:35.758Z,0.50
2022-07-29T01:48:39.838Z,1.00
2022-07-29T01:49:43.780Z,1.50
2022-07-29T01:50:47.788Z,1.25
2022-07-29T01:51:51.641Z,1.50
2022-07-29T01:52:55.577Z,2.00
2022-07-29T01:53:59.570Z,1.50
2022-07-29T01:55:03.683Z,2.00
2022-07-29T01:56:07.816Z,2.00
2022-07-29T01:57:11.680Z,2.00
2022-07-29T01:58:15.793Z,1.75
2022-07-29T01:59:19.790Z,2.00
2022-07-29T02:00:25.019Z,1.00
2022-07-29T02:01:29.074Z,0.50
2022-07-29T02:02:33.029Z,1.50
2022-07-29T02:03:37.020Z,1.50
2022-07-29T02:04:41.071Z,1.25
2022-07-29T02:05:44.918Z,1.00
2022-07-29T02:06:48.837Z,1.25
2022-07-29T02:07:52.821Z,1.00
2022-07-29T02:08:56.724Z,0.50
2022-07-29T02:10:00.726Z,1.00
2022-07-29T02:11:04.922Z,0.25
2022-07-29T02:12:09.127Z,1.00
2022-07-29T02:13:12.998Z,2.00
2022-07-29T02:14:17.060Z,2.00
2022-07-29T02:15:21.137Z,0.00
2022-07-29T02:16:25.137Z,1.00
2022-07-29T02:17:29.140Z,0.50
2022-07-29T02:18:33.240Z,0.00
2022-07-29T02:19:37.004Z,0.67
2022-07-29T02:20:40.787Z,1.00
2022-07-29T02:21:44.640Z,1.00
2022-07-29T02:22:48.604Z,1.50
2022-07-29T02:23:52.425Z,1.50
2022-07-29T02:24:56.325Z,1.00
2022-07-29T02:26:00.335Z,1.00
2022-07-29T02:27:04.328Z,0.50
2022-07-29T02:28:08.239Z,0.50
2022-07-29T02:29:12.224Z,0.00
2022-07-29T02:30:16.135Z,0.50
2022-07-29T02:31:20.374Z,0.50
2022-07-29T02:32:24.537Z,0.50
2022-07-29T02:33:28.434Z,2.00
2022-07-29T02:34:32.439Z,1.50
2022-07-29T02:35:36.442Z,1.00
2022-07-29T02:36:40.539Z,0.75
2022-07-29T02:37:44.441Z,1.25
2022-07-29T02:38:48.539Z,1.50
2022-07-29T02:39:52.300Z,0.50
2022-07-29T02:40:56.133Z,0.50
2022-07-29T02:42:00.049Z,0.50
2022-07-29T02:43:04.136Z,0.50
2022-07-29T02:44:08.141Z,0.50
2022-07-29T02:45:12.212Z,0.50
2022-07-29T02:46:29.516Z,0.00
2022-07-29T02:47:21.369Z,0.75
2022-07-29T02:48:25.372Z,0.25
2022-07-29T02:49:29.186Z,1.00
2022-07-29T02:50:33.167Z,1.00
2022-07-29T02:51:41.508Z,1.00
2022-07-29T02:52:42.200Z,0.50
2022-07-29T02:53:46.194Z,1.50
2022-07-29T02:54:50.503Z,1.25
2022-07-29T02:55:54.405Z,0.50
2022-07-29T02:56:58.298Z,1.00
2022-07-29T02:58:02.160Z,0.75
2022-07-29T02:59:07.133Z,2.50
2022-07-29T03:00:11.104Z,1.50
2022-07-29T03:01:21.425Z,0.00
2022-07-29T03:02:21.786Z,1.00
2022-07-29T03:03:26.004Z,1.50
2022-07-29T03:04:30.198Z,1.00
2022-07-29T03:05:34.399Z,1.50
2022-07-29T03:06:38.942Z,2.50
2022-07-29T03:07:43.124Z,1.75
2022-07-29T03:08:47.229Z,1.50
2022-07-29T03:09:50.984Z,1.00
2022-07-29T03:10:54.715Z,1.50
2022-07-29T03:11:58.631Z,0.75
2022-07-29T03:13:02.491Z,0.00
2022-07-29T03:14:06.514Z,0.25
2022-07-29T03:15:10.514Z,0.50
2022-07-29T03:16:14.543Z,0.50
2022-07-29T03:17:18.313Z,0.50
2022-07-29T03:18:22.110Z,0.50
2022-07-29T03:19:26.009Z,0.50
2022-07-29T03:20:29.802Z,1.00
2022-07-29T03:21:33.701Z,0.00
2022-07-29T03:22:37.608Z,1.50
2022-07-29T03:23:41.514Z,1.00
2022-07-29T03:24:45.605Z,0.00
2022-07-29T03:25:50.420Z,0.50
2022-07-29T03:26:54.430Z,0.75
2022-07-29T03:27:58.528Z,0.00
2022-07-29T03:29:02.426Z,0.00
2022-07-29T03:30:06.339Z,0.00
2022-07-29T03:31:11.344Z,0.25
2022-07-29T03:32:16.477Z,0.50
2022-07-29T03:33:21.394Z,0.00
2022-07-29T03:34:25.516Z,0.00
2022-07-29T03:35:29.503Z,0.75
2022-07-29T03:36:33.371Z,1.00
2022-07-29T03:37:37.103Z,0.75
2022-07-29T03:38:41.301Z,1.00
2022-07-29T03:39:45.406Z,0.50
2022-07-29T03:40:49.612Z,0.50
2022-07-29T03:41:53.515Z,0.00
2022-07-29T03:42:57.918Z,0.00
2022-07-29T03:44:01.942Z,0.00
2022-07-29T03:45:05.919Z,0.00
2022-07-29T03:46:10.087Z,0.00
2022-07-29T03:47:14.222Z,0.25
2022-07-29T03:48:18.346Z,0.50
2022-07-29T03:49:22.461Z,0.50
2022-07-29T03:50:26.645Z,0.50
2022-07-29T03:51:34.028Z,0.25
2022-07-29T03:52:35.983Z,0.25
2022-07-29T03:53:40.284Z,0.25
2022-07-29T03:54:44.503Z,1.00
2022-07-29T03:55:48.284Z,0.50
2022-07-29T03:56:52.493Z,0.50
2022-07-29T03:57:56.698Z,0.50
2022-07-29T03:59:00.593Z,0.00
2022-07-29T04:00:04.414Z,0.00
2022-07-29T04:01:08.605Z,0.00
2022-07-29T04:02:12.843Z,0.75
2022-07-29T04:03:17.235Z,0.50
2022-07-29T04:04:21.421Z,0.50
2022-07-29T04:05:26.034Z,1.00
2022-07-29T04:06:30.240Z,1.50
2022-07-29T04:07:34.260Z,0.00
2022-07-29T04:08:38.530Z,1.00
2022-07-29T04:09:42.557Z,1.25
2022-07-29T04:10:46.758Z,0.00
2022-07-29T04:12:02.350Z,0.50
2022-07-29T04:12:55.890Z,0.25
2022-07-29T04:13:59.885Z,0.50
2022-07-29T04:15:03.749Z,1.00
2022-07-29T04:16:07.560Z,1.00
2022-07-29T04:17:11.483Z,0.50
2022-07-29T04:18:15.485Z,0.50
2022-07-29T04:19:19.286Z,1.50
2022-07-29T04:20:23.279Z,1.25
2022-07-29T04:21:27.176Z,1.00
2022-07-29T04:22:31.178Z,0.50
2022-07-29T04:23:35.280Z,0.00
2022-07-29T04:24:43.984Z,0.75
2022-07-29T04:25:45.228Z,0.00
2022-07-29T04:26:49.142Z,0.50
2022-07-29T04:27:52.882Z,0.50
2022-07-29T04:28:56.721Z,0.00
2022-07-29T04:30:00.531Z,0.00
2022-07-29T04:31:04.496Z,0.00
2022-07-29T04:32:08.416Z,0.75
2022-07-29T04:33:12.722Z,0.50
2022-07-29T04:34:17.108Z,0.25
2022-07-29T04:35:21.647Z,0.00
2022-07-29T04:36:28.666Z,0.50
2022-07-29T04:37:31.099Z,1.00
2022-07-29T04:38:35.289Z,0.25
2022-07-29T04:39:39.502Z,0.50
2022-07-29T04:40:43.704Z,1.00
2022-07-29T04:41:47.575Z,1.00
2022-07-29T04:42:52.018Z,1.50
2022-07-29T04:43:56.924Z,0.50
2022-07-29T04:45:01.600Z,0.50
2022-07-29T04:46:05.739Z,0.25
2022-07-29T04:47:09.860Z,0.50
2022-07-29T04:48:13.961Z,0.50
2022-07-29T04:49:18.498Z,1.00
2022-07-29T04:50:22.404Z,1.00
2022-07-29T04:51:26.486Z,1.00
2022-07-29T04:52:30.607Z,1.50
2022-07-29T04:53:34.692Z,1.50
2022-07-29T04:54:38.439Z,1.00
2022-07-29T04:55:42.277Z,0.00
2022-07-29T04:56:46.479Z,0.75
2022-07-29T04:57:51.507Z,1.00
2022-07-29T04:58:55.267Z,1.50
2022-07-29T04:59:58.911Z,1.25
2022-07-29T05:01:02.789Z,0.00
2022-07-29T05:02:06.725Z,1.00
2022-07-29T05:03:10.633Z,1.00
2022-07-29T05:04:14.807Z,0.00
2022-07-29T05:05:19.017Z,0.50
2022-07-29T05:06:22.803Z,0.00
2022-07-29T05:07:26.707Z,1.00
2022-07-29T05:08:30.491Z,3.00
2022-07-29T05:09:34.391Z,0.50
2022-07-29T05:10:38.501Z,0.50
2022-07-29T05:11:42.264Z,1.00
2022-07-29T05:12:46.017Z,1.00
2022-07-29T05:13:49.781Z,0.00
2022-07-29T05:14:53.884Z,0.00
2022-07-29T05:15:57.840Z,0.00
2022-07-29T05:17:01.784Z,0.00
2022-07-29T05:18:05.682Z,0.00
2022-07-29T05:19:13.994Z,1.50
2022-07-29T05:20:14.613Z,1.50
2022-07-29T05:21:18.537Z,0.00
2022-07-29T05:22:22.399Z,0.00
2022-07-29T05:23:26.261Z,0.50
2022-07-29T05:24:30.094Z,0.00
2022-07-29T05:25:43.586Z,0.50
2022-07-29T05:26:39.284Z,1.00
2022-07-29T05:27:43.434Z,1.00
2022-07-29T05:28:47.538Z,1.00
2022-07-29T05:29:51.328Z,0.50
2022-07-29T05:30:55.173Z,0.50
2022-07-29T05:31:59.130Z,0.00
2022-07-29T05:33:04.100Z,1.25
2022-07-29T05:34:07.870Z,0.00
2022-07-29T05:35:11.640Z,0.00
2022-07-29T05:36:15.641Z,0.50
2022-07-29T05:37:19.751Z,0.00
2022-07-29T05:38:23.750Z,0.00
2022-07-29T05:39:47.381Z,0.00
2022-07-29T05:40:32.587Z,0.00
2022-07-29T05:41:36.579Z,0.00
2022-07-29T05:42:40.834Z,0.00
2022-07-29T05:43:44.880Z,0.50
2022-07-29T05:44:48.841Z,0.50
2022-07-29T05:45:52.719Z,0.00
2022-07-29T05:46:56.782Z,0.50
2022-07-29T05:48:00.689Z,0.50
2022-07-29T05:49:04.529Z,0.00
2022-07-29T05:50:08.683Z,0.00
2022-07-29T05:51:12.633Z,0.50
2022-07-29T05:52:16.583Z,0.00
2022-07-29T05:53:20.953Z,0.25
2022-07-29T05:54:25.209Z,0.25
2022-07-29T05:55:29.093Z,1.00
2022-07-29T05:56:33.094Z,0.75
2022-07-29T05:57:36.895Z,1.50
2022-07-29T05:58:40.615Z,1.00
2022-07-29T05:59:44.484Z,0.50
2022-07-29T06:00:48.395Z,0.00
2022-07-29T06:01:52.124Z,1.00
2022-07-29T06:02:56.081Z,0.25
2022-07-29T06:04:00.031Z,0.50
2022-07-29T06:05:03.779Z,0.00
2022-07-29T06:06:07.774Z,1.00
2022-07-29T06:07:11.586Z,1.00
2022-07-29T06:08:15.381Z,1.00
2022-07-29T06:09:19.036Z,1.00
2022-07-29T06:10:26.113Z,0.50
2022-07-29T06:11:27.991Z,0.67
2022-07-29T06:12:31.987Z,1.00
2022-07-29T06:13:35.899Z,0.50
2022-07-29T06:14:39.990Z,1.00
2022-07-29T06:15:44.049Z,1.00
2022-07-29T06:16:48.136Z,0.50
2022-07-29T06:17:59.426Z,1.75
2022-07-29T06:18:56.914Z,1.50
2022-07-29T06:20:00.915Z,1.50
2022-07-29T06:21:04.725Z,2.50
2022-07-29T06:22:08.710Z,2.00
2022-07-29T06:23:12.574Z,1.00
2022-07-29T06:24:17.011Z,0.00
2022-07-29T06:25:21.431Z,0.25
2022-07-29T06:26:30.259Z,0.50
2022-07-29T06:27:30.880Z,0.50
2022-07-29T06:28:35.348Z,0.50
2022-07-29T06:29:39.480Z,0.50
2022-07-29T06:30:43.721Z,0.00
2022-07-29T06:31:47.754Z,0.25
2022-07-29T06:32:51.613Z,1.00
2022-07-29T06:33:55.280Z,1.00
2022-07-29T06:35:24.520Z,1.00
2022-07-29T06:36:04.273Z,0.00
2022-07-29T06:37:08.109Z,1.00
2022-07-29T06:38:31.649Z,1.00
2022-07-29T06:39:18.458Z,1.50
2022-07-29T06:40:22.668Z,1.00
2022-07-29T06:41:26.426Z,0.75
2022-07-29T06:42:30.260Z,1.00
2022-07-29T06:43:34.261Z,0.00
2022-07-29T06:44:38.061Z,0.50
2022-07-29T06:45:42.052Z,0.50
2022-07-29T06:46:46.264Z,0.00
2022-07-29T06:47:50.161Z,0.00
2022-07-29T06:48:54.332Z,0.75
2022-07-29T06:49:58.130Z,1.75
2022-07-29T06:51:01.970Z,1.75
2022-07-29T06:52:05.825Z,1.00
2022-07-29T06:53:09.529Z,0.50
2022-07-29T06:54:13.638Z,2.00
2022-07-29T06:55:24.977Z,2.25
2022-07-29T06:56:22.683Z,1.00
2022-07-29T06:57:26.682Z,0.50
2022-07-29T06:58:30.685Z,1.00
2022-07-29T06:59:35.995Z,0.25
2022-07-29T07:00:39.622Z,0.50
2022-07-29T07:01:43.606Z,0.25
2022-07-29T07:02:47.569Z,0.50
2022-07-29T07:03:51.303Z,1.75
2022-07-29T07:04:55.306Z,2.00
2022-07-29T07:05:59.312Z,2.25
2022-07-29T07:07:04.431Z,2.00
2022-07-29T07:08:08.338Z,1.75
2022-07-29T07:09:12.258Z,2.50
2022-07-29T07:10:16.335Z,1.00
2022-07-29T07:11:20.540Z,0.50
2022-07-29T07:12:24.549Z,2.00
2022-07-29T07:13:28.743Z,1.50
2022-07-29T07:14:32.695Z,1.00
2022-07-29T07:15:39.142Z,0.00
2022-07-29T07:16:41.907Z,1.50
2022-07-29T07:17:46.089Z,1.00
2022-07-29T07:18:50.290Z,1.50
2022-07-29T07:19:53.981Z,1.50
2022-07-29T07:20:58.089Z,1.50
2022-07-29T07:22:02.085Z,1.50
2022-07-29T07:23:07.010Z,1.75
2022-07-29T07:24:11.210Z,2.00
2022-07-29T07:25:15.174Z,1.00
2022-07-29T07:26:19.118Z,0.50
2022-07-29T07:27:23.215Z,1.50
2022-07-29T07:28:27.130Z,1.50
2022-07-29T07:29:31.017Z,1.25
2022-07-29T07:30:35.227Z,1.00
2022-07-29T07:31:39.448Z,0.50
2022-07-29T07:32:43.332Z,1.00
2022-07-29T07:33:47.122Z,1.00
2022-07-29T07:34:50.927Z,1.75
2022-07-29T07:35:54.698Z,2.00
2022-07-29T07:36:58.587Z,2.00
2022-07-29T07:38:02.530Z,1.50
2022-07-29T07:39:06.522Z,1.50
2022-07-29T07:40:10.379Z,2.00
2022-07-29T07:41:14.118Z,1.50
2022-07-29T07:42:17.958Z,2.00
2022-07-29T07:43:21.590Z,2.00
2022-07-29T07:44:25.285Z,3.00
2022-07-29T07:45:29.329Z,2.50
2022-07-29T07:46:33.299Z,1.50
2022-07-29T07:47:37.289Z,1.50
2022-07-29T07:48:41.667Z,1.00
2022-07-29T07:49:45.511Z,2.00
2022-07-29T07:50:49.495Z,1.75
2022-07-29T07:51:53.611Z,2.50
2022-07-29T07:52:57.407Z,3.50
2022-07-29T07:54:01.305Z,3.75
2022-07-29T07:55:06.185Z,4.00
2022-07-29T07:56:11.486Z,3.00
2022-07-29T07:57:14.792Z,1.50
2022-07-29T07:58:18.545Z,3.50
2022-07-29T07:59:22.736Z,4.50
2022-07-29T08:00:29.815Z,3.25
2022-07-29T08:01:49.956Z,3.50
2022-07-29T08:02:39.242Z,2.00
2022-07-29T08:03:43.451Z,1.25
2022-07-29T08:04:47.656Z,1.50
2022-07-29T08:05:51.450Z,1.00
2022-07-29T08:06:55.462Z,1.75
2022-07-29T08:07:59.267Z,2.00
2022-07-29T08:09:26.664Z,2.25
2022-07-29T08:10:08.180Z,2.25
2022-07-29T08:11:12.284Z,1.75
2022-07-29T08:12:16.259Z,2.00
2022-07-29T08:13:20.289Z,3.00
2022-07-29T08:14:24.279Z,3.00
2022-07-29T08:15:28.154Z,2.25
2022-07-29T08:16:32.221Z,2.75
2022-07-29T08:17:36.186Z,3.50
2022-07-29T08:18:40.139Z,2.00
2022-07-29T08:19:43.732Z,2.50
2022-07-29T08:20:48.651Z,1.50
2022-07-29T08:21:52.681Z,2.00
2022-07-29T08:22:56.797Z,3.25
2022-07-29T08:24:04.095Z,3.00
2022-07-29T08:25:05.497Z,1.75
2022-07-29T08:26:09.415Z,1.50
2022-07-29T08:27:40.707Z,3.00
2022-07-29T08:28:18.341Z,2.50
2022-07-29T08:29:22.035Z,2.00
2022-07-29T08:30:26.043Z,2.50
2022-07-29T08:31:29.873Z,3.00
2022-07-29T08:32:52.636Z,2.50
2022-07-29T08:33:38.651Z,1.75
2022-07-29T08:34:42.462Z,2.50
2022-07-29T08:35:46.359Z,2.50
2022-07-29T08:36:50.794Z,1.75
2022-07-29T08:37:54.965Z,3.00
2022-07-29T08:38:58.868Z,2.50
2022-07-29T08:40:02.656Z,4.00
2022-07-29T08:41:06.459Z,4.00
2022-07-29T08:42:10.318Z,5.00
2022-07-29T08:43:14.061Z,5.25
2022-07-29T08:44:17.843Z,4.00
2022-07-29T08:45:23.534Z,3.75
2022-07-29T08:46:27.487Z,3.25
2022-07-29T08:47:31.379Z,3.00
2022-07-29T08:48:35.178Z,2.25
2022-07-29T08:49:39.178Z,2.00
2022-07-29T08:50:42.874Z,2.25
2022-07-29T08:51:49.424Z,1.75
2022-07-29T08:52:56.534Z,2.00
2022-07-29T08:53:57.950Z,2.00
2022-07-29T08:55:01.765Z,2.00
2022-07-29T08:56:05.541Z,2.50
2022-07-29T08:57:09.539Z,3.00
2022-07-29T08:58:13.299Z,2.75
2022-07-29T08:59:18.261Z,3.00
2022-07-29T09:00:23.156Z,2.50
2022-07-29T09:01:36.049Z,3.50
2022-07-29T09:02:31.913Z,4.00
2022-07-29T09:03:35.736Z,3.50
2022-07-29T09:04:39.473Z,3.50
2022-07-29T09:05:46.186Z,3.50
2022-07-29T09:06:48.111Z,3.00
2022-07-29T09:07:51.911Z,3.00
2022-07-29T09:08:55.692Z,2.50
2022-07-29T09:09:59.464Z,4.00
2022-07-29T09:11:03.902Z,3.75
2022-07-29T09:12:08.218Z,3.00
2022-07-29T09:13:12.134Z,3.25
2022-07-29T09:14:16.115Z,4.00
2022-07-29T09:15:19.932Z,3.00
2022-07-29T09:16:50.817Z,2.00
2022-07-29T09:17:29.110Z,2.50
2022-07-29T09:18:32.843Z,2.50
2022-07-29T09:19:36.610Z,2.50
2022-07-29T09:20:40.636Z,2.00
2022-07-29T09:21:44.336Z,3.00
2022-07-29T09:22:48.090Z,2.50
2022-07-29T09:23:51.678Z,3.00
2022-07-29T09:24:55.716Z,2.00
2022-07-29T09:25:59.520Z,2.00
2022-07-29T09:27:03.427Z,1.50
2022-07-29T09:28:07.426Z,3.00
2022-07-29T09:29:11.319Z,3.00
2022-07-29T09:30:15.076Z,3.00
2022-07-29T09:31:20.411Z,3.75
2022-07-29T09:32:24.655Z,2.75
2022-07-29T09:33:28.755Z,2.25
2022-07-29T09:34:32.866Z,4.00
2022-07-29T09:35:36.974Z,4.00
2022-07-29T09:36:41.271Z,3.00
2022-07-29T09:37:45.441Z,3.00
2022-07-29T09:38:49.692Z,2.75
2022-07-29T09:39:53.782Z,2.75
2022-07-29T09:40:57.567Z,2.50
2022-07-29T09:42:02.703Z,1.50
2022-07-29T09:43:06.433Z,2.00
2022-07-29T09:44:10.194Z,2.00
2022-07-29T09:45:14.507Z,2.50
2022-07-29T09:46:18.662Z,3.00
2022-07-29T09:47:22.816Z,4.25
2022-07-29T09:48:26.825Z,2.00
2022-07-29T09:49:30.709Z,2.75
2022-07-29T09:50:35.020Z,3.00
2022-07-29T09:51:39.069Z,3.50
2022-07-29T09:52:43.129Z,3.25
2022-07-29T09:53:47.341Z,2.25
2022-07-29T09:54:51.339Z,3.00
2022-07-29T09:55:55.293Z,2.50
2022-07-29T09:56:59.245Z,3.00
2022-07-29T09:58:03.230Z,3.00
2022-07-29T09:59:07.141Z,3.25
2022-07-29T10:00:10.823Z,1.50
2022-07-29T10:01:14.841Z,2.25
2022-07-29T10:02:23.652Z,2.75
2022-07-29T10:03:23.792Z,2.75
2022-07-29T10:04:27.547Z,3.75
2022-07-29T10:05:36.748Z,6.75
2022-07-29T10:06:36.572Z,7.50
2022-07-29T10:07:40.482Z,7.50
2022-07-29T10:08:44.163Z,6.50
2022-07-29T10:09:48.062Z,6.75
2022-07-29T10:10:52.062Z,7.50
2022-07-29T10:11:55.858Z,7.50
2022-07-29T10:13:03.062Z,5.00
2022-07-29T10:14:04.584Z,4.50
2022-07-29T10:15:08.269Z,5.50
2022-07-29T10:16:12.184Z,7.25
2022-07-29T10:17:17.313Z,6.25
2022-07-29T10:18:21.086Z,7.00
2022-07-29T10:19:25.175Z,8.25
2022-07-29T10:20:29.235Z,10.00
2022-07-29T10:21:35.825Z,8.25
2022-07-29T10:22:52.538Z,6.25
2022-07-29T10:23:47.104Z,7.25
2022-07-29T10:24:48.441Z,8.50
2022-07-29T10:25:52.381Z,9.00
2022-07-29T10:26:56.580Z,10.75
2022-07-29T10:28:00.596Z,12.50
2022-07-29T10:29:04.690Z,12.25
2022-07-29T10:30:08.594Z,13.50
2022-07-29T10:31:12.796Z,13.00
2022-07-29T10:32:17.000Z,11.00
2022-07-29T10:33:21.324Z,14.00
2022-07-29T10:34:25.410Z,14.00
2022-07-29T10:35:29.627Z,14.50
2022-07-29T10:36:33.735Z,15.25
2022-07-29T10:37:37.823Z,13.00
2022-07-29T10:38:45.978Z,13.25
2022-07-29T10:39:49.955Z,15.50
2022-07-29T10:40:53.518Z,15.50
2022-07-29T10:41:58.839Z,17.00
2022-07-29T10:43:03.158Z,17.00
2022-07-29T10:44:07.019Z,17.25
2022-07-29T10:45:11.580Z,17.00
2022-07-29T10:46:16.620Z,15.50
2022-07-29T10:47:21.000Z,16.00
2022-07-29T10:48:25.015Z,17.25
2022-07-29T10:49:30.621Z,16.50
2022-07-29T10:50:33.902Z,14.75
2022-07-29T10:51:38.339Z,13.00
2022-07-29T10:52:42.646Z,12.50
2022-07-29T10:53:46.954Z,15.00
2022-07-29T10:54:51.881Z,16.00
2022-07-29T10:55:56.398Z,16.25
2022-07-29T10:57:00.288Z,13.50
2022-07-29T10:58:04.079Z,13.50
2022-07-29T10:59:09.210Z,12.75
2022-07-29T11:00:16.863Z,10.75
2022-07-29T11:01:37.299Z,12.75
2022-07-29T11:02:41.557Z,13.00
2022-07-29T11:03:30.289Z,11.50
2022-07-29T11:04:34.651Z,11.50
2022-07-29T11:05:40.806Z,11.75
2022-07-29T11:06:44.091Z,11.50
2022-07-29T11:07:48.340Z,10.00
2022-07-29T11:08:53.527Z,11.00
2022-07-29T11:09:57.270Z,12.00
2022-07-29T11:11:01.719Z,9.75
2022-07-29T11:12:06.661Z,10.00
2022-07-29T11:13:11.641Z,9.00
2022-07-29T11:14:16.093Z,10.00
2022-07-29T11:15:19.998Z,9.50
2022-07-29T11:16:25.320Z,10.50
2022-07-29T11:17:46.892Z,11.25
2022-07-29T11:18:34.786Z,9.50
2022-07-29T11:19:40.354Z,9.00
2022-07-29T11:20:43.893Z,10.00
2022-07-29T11:21:53.954Z,11.25
2022-07-29T11:22:53.617Z,9.75
2022-07-29T11:23:57.408Z,11.50
2022-07-29T11:25:01.833Z,12.00
2022-07-29T11:26:06.438Z,9.50
2022-07-29T11:27:10.847Z,9.50
2022-07-29T11:28:16.682Z,9.50
2022-07-29T11:29:19.979Z,9.25
2022-07-29T11:30:25.250Z,10.25
2022-07-29T11:31:29.986Z,10.25
2022-07-29T11:32:34.857Z,9.00
2022-07-29T11:33:55.764Z,9.25
2022-07-29T11:34:44.801Z,10.00
2022-07-29T11:35:53.744Z,7.50
2022-07-29T11:36:53.637Z,10.00
2022-07-29T11:37:57.761Z,11.50
2022-07-29T11:39:01.532Z,9.75
2022-07-29T11:40:05.828Z,9.50
2022-07-29T11:41:09.831Z,9.50
2022-07-29T11:42:14.760Z,11.00
2022-07-29T11:43:18.759Z,11.75
2022-07-29T11:44:22.750Z,10.25
2022-07-29T11:45:42.025Z,12.00
2022-07-29T11:46:32.701Z,11.50
2022-07-29T11:47:38.308Z,12.25
2022-07-29T11:48:53.660Z,11.50
2022-07-29T11:49:57.511Z,10.00
2022-07-29T11:51:02.984Z,9.50
2022-07-29T11:52:07.054Z,9.75
2022-07-29T11:53:11.970Z,10.00
2022-07-29T11:54:16.108Z,10.50
2022-07-29T11:55:19.871Z,10.25
2022-07-29T11:56:25.624Z,9.50
2022-07-29T11:57:35.985Z,9.25
2022-07-29T11:58:33.946Z,9.00
2022-07-29T11:59:37.717Z,9.25
2022-07-29T12:00:42.525Z,10.00
2022-07-29T12:01:47.060Z,9.00
2022-07-29T12:02:50.812Z,9.25
2022-07-29T12:03:54.585Z,8.25
2022-07-29T12:04:58.964Z,8.00
2022-07-29T12:06:02.950Z,8.25
2022-07-29T12:08:12.758Z,7.75
2022-07-29T12:09:16.092Z,7.00
2022-07-29T12:10:30.073Z,8.00
2022-07-29T12:11:25.627Z,8.75
2022-07-29T12:12:29.519Z,8.50
2022-07-29T12:13:37.860Z,8.00
2022-07-29T12:14:38.548Z,8.25
2022-07-29T12:15:47.031Z,8.50
2022-07-29T12:16:47.922Z,10.25
2022-07-29T12:17:51.670Z,9.00
2022-07-29T12:18:55.773Z,7.75
2022-07-29T12:19:59.569Z,8.00
2022-07-29T12:21:03.863Z,9.00
2022-07-29T12:22:07.789Z,8.00
2022-07-29T12:23:11.690Z,8.00
2022-07-29T12:24:16.711Z,8.25
2022-07-29T12:25:35.696Z,9.00
2022-07-29T12:26:25.937Z,8.50
2022-07-29T12:27:31.345Z,9.00
2022-07-29T12:28:34.822Z,7.75
2022-07-29T12:29:38.971Z,10.00
2022-07-29T12:30:45.086Z,10.50
2022-07-29T12:31:48.969Z,8.00
2022-07-29T12:32:52.911Z,10.00
2022-07-29T12:33:56.700Z,10.00
2022-07-29T12:35:01.928Z,8.50
2022-07-29T12:36:07.479Z,9.25
2022-07-29T12:37:10.868Z,9.25
2022-07-29T12:38:14.907Z,8.75
2022-07-29T12:39:19.069Z,7.00
2022-07-29T12:40:23.055Z,10.00
2022-07-29T12:41:27.080Z,13.25
2022-07-29T12:42:31.192Z,11.75
2022-07-29T12:43:35.285Z,11.00
2022-07-29T12:44:39.284Z,10.75
2022-07-29T12:45:43.382Z,9.00
2022-07-29T12:46:47.451Z,10.50
2022-07-29T12:47:51.586Z,8.00
2022-07-29T12:48:55.786Z,6.50
2022-07-29T12:49:59.551Z,11.75
2022-07-29T12:51:03.588Z,13.25
2022-07-29T12:52:07.392Z,12.50
2022-07-29T12:53:11.079Z,9.25
2022-07-29T12:54:15.283Z,8.50
2022-07-29T12:55:19.407Z,10.50
2022-07-29T12:57:28.702Z,22.00
2022-07-29T12:58:32.840Z,22.00
2022-07-29T12:59:36.627Z,8.75
2022-07-29T13:00:41.932Z,7.50
2022-07-29T13:01:45.761Z,7.50
2022-07-29T13:02:49.685Z,8.25
2022-07-29T13:03:57.123Z,8.50
2022-07-29T13:04:58.703Z,11.25
2022-07-29T13:06:02.386Z,13.00
2022-07-29T13:07:06.170Z,11.50
2022-07-29T13:08:09.861Z,11.50
2022-07-29T13:09:15.088Z,14.00
2022-07-29T13:10:19.199Z,14.00
2022-07-29T13:11:24.518Z,14.00
2022-07-29T13:12:28.643Z,11.25
2022-07-29T13:13:32.854Z,9.75
2022-07-29T13:14:36.840Z,9.00
2022-07-29T13:15:40.886Z,9.00
2022-07-29T13:16:44.687Z,10.25
2022-07-29T13:17:48.431Z,9.00
2022-07-29T13:18:52.343Z,9.50
2022-07-29T13:19:56.330Z,11.00
2022-07-29T13:21:00.234Z,8.00
2022-07-29T13:22:04.092Z,8.00
2022-07-29T13:23:07.723Z,10.00
2022-07-29T13:24:11.476Z,10.50
2022-07-29T13:25:15.111Z,8.75
2022-07-29T13:26:18.914Z,9.00
2022-07-29T13:27:22.711Z,7.50
2022-07-29T13:28:26.373Z,7.25
2022-07-29T13:29:31.663Z,8.00
2022-07-29T13:30:35.285Z,8.00
2022-07-29T13:31:39.121Z,7.75
2022-07-29T13:32:43.021Z,8.25
2022-07-29T13:33:47.838Z,9.00
2022-07-29T13:34:51.634Z,11.00
2022-07-29T13:35:55.522Z,10.00
2022-07-29T13:36:59.429Z,9.50
2022-07-29T13:38:03.227Z,9.25
2022-07-29T13:39:07.132Z,9.25
2022-07-29T13:40:11.033Z,8.50
2022-07-29T13:41:15.234Z,8.00
2022-07-29T13:42:19.123Z,10.25
2022-07-29T13:43:23.333Z,8.50
2022-07-29T13:44:27.222Z,10.00
2022-07-29T13:45:31.230Z,9.00
2022-07-29T13:46:35.234Z,8.50
2022-07-29T13:47:42.514Z,11.75
2022-07-29T13:48:45.604Z,13.25
2022-07-29T13:49:49.559Z,9.50
2022-07-29T13:50:53.706Z,7.50
2022-07-29T13:51:57.573Z,8.25
2022-07-29T13:53:01.805Z,7.00
2022-07-29T13:54:05.729Z,7.50
2022-07-29T13:55:09.493Z,7.25
2022-07-29T13:56:13.405Z,8.50
2022-07-29T13:57:17.694Z,9.00
2022-07-29T13:58:21.699Z,9.50
2022-07-29T13:59:25.910Z,9.00
2022-07-29T14:00:29.904Z,10.00
2022-07-29T14:01:33.827Z,11.25
2022-07-29T14:02:37.912Z,8.75
2022-07-29T14:03:41.868Z,10.00
2022-07-29T14:04:47.597Z,9.00
2022-07-29T14:05:51.515Z,7.75
2022-07-29T14:06:55.508Z,8.75
2022-07-29T14:07:59.239Z,8.50
2022-07-29T14:09:03.354Z,10.50
2022-07-29T14:10:07.160Z,9.25
2022-07-29T14:11:11.054Z,12.00
2022-07-29T14:12:14.958Z,11.50